Terminal Aerodrome Forecast
Issued by NWS Duluth, MN

Home | Current Version | Previous Version | Text Only | Print | Product List | Glossary On
Versions: 1 2 3 4 5 6 7 8 9 10 11 12 13 14 15 16 17 18 19 20 21 22 23
000
FTUS43 KDLH 240853 AAD
TAFDLH
TAF AMD
KDLH 240853Z 2409/2506 VRB03KT P6SM OVC004
     FM241200 28011G16KT P6SM SCT015
     FM241600 29015G20KT P6SM SCT030 SCT200
     FM250100 28007KT P6SM SCT050=

USA.gov is the U.S. government's official web portal to all federal, state and local government web resources and services.